createdAt,value
2019-03-24T00:00:30.392Z,54.93
2019-03-24T00:02:58.849Z,53.92
2019-03-24T00:05:27.298Z,55.40
2019-03-24T00:07:56.852Z,57.23
2019-03-24T00:10:25.561Z,57.70
2019-03-24T00:12:54.009Z,49.90
2019-03-24T00:15:26.497Z,62.67
2019-03-24T00:17:52.696Z,61.63
2019-03-24T00:20:21.133Z,57.27
2019-03-24T00:22:49.576Z,59.48
2019-03-24T00:25:18.013Z,63.85
2019-03-24T00:27:46.461Z,64.45
2019-03-24T00:30:15.510Z,61.58
2019-03-24T00:32:44.011Z,67.03
2019-03-24T00:35:12.580Z,57.58
2019-03-24T00:37:41.024Z,59.42
2019-03-24T00:40:10.037Z,60.98
2019-03-24T00:42:38.515Z,58.42
2019-03-24T00:45:10.562Z,54.18
2019-03-24T00:47:39.005Z,52.10
2019-03-24T00:50:07.914Z,57.48
2019-03-24T00:52:36.341Z,51.98
2019-03-24T00:55:06.953Z,51.18
2019-03-24T00:57:37.492Z,49.40
2019-03-24T01:00:07.521Z,49.10
2019-03-24T01:02:35.949Z,48.25
2019-03-24T01:05:06.337Z,57.00
2019-03-24T01:07:34.908Z,48.95
2019-03-24T01:10:04.889Z,48.55
2019-03-24T01:12:33.329Z,53.78
2019-03-24T01:15:01.773Z,46.55
2019-03-24T01:17:30.205Z,46.37
2019-03-24T01:19:58.665Z,47.40
2019-03-24T01:22:27.230Z,53.63
2019-03-24T01:24:55.674Z,50.75
2019-03-24T01:27:24.110Z,46.80
2019-03-24T01:29:52.571Z,45.38
2019-03-24T01:32:20.997Z,55.08
2019-03-24T01:34:49.441Z,58.75
2019-03-24T01:37:17.873Z,55.67
2019-03-24T01:39:46.572Z,48.60
2019-03-24T01:42:15.005Z,51.48
2019-03-24T01:44:43.449Z,54.50
2019-03-24T01:47:11.879Z,56.77
2019-03-24T01:49:40.326Z,44.60
2019-03-24T01:52:08.759Z,49.42
2019-03-24T01:54:37.545Z,48.63
2019-03-24T01:57:25.317Z,42.35
2019-03-24T01:59:53.764Z,47.33
2019-03-24T02:02:22.265Z,44.73
2019-03-24T02:04:50.704Z,41.83
2019-03-24T02:07:19.275Z,47.73
2019-03-24T02:09:48.184Z,47.90
2019-03-24T02:12:16.623Z,44.58
2019-03-24T02:14:45.153Z,41.00
2019-03-24T02:17:13.894Z,48.80
2019-03-24T02:19:42.324Z,46.02
2019-03-24T02:22:10.788Z,42.88
2019-03-24T02:24:39.212Z,49.03
2019-03-24T02:27:08.028Z,49.42
2019-03-24T02:29:36.468Z,41.42
2019-03-24T02:32:05.063Z,41.85
2019-03-24T02:34:33.505Z,50.48
2019-03-24T02:37:01.942Z,43.33
2019-03-24T02:39:30.382Z,45.28
2019-03-24T02:41:59.281Z,55.40
2019-03-24T02:44:27.718Z,51.90
2019-03-24T02:46:56.239Z,42.17
2019-03-24T02:49:24.676Z,44.53
2019-03-24T02:51:53.114Z,44.15
2019-03-24T02:54:21.547Z,45.92
2019-03-24T02:56:49.990Z,45.10
2019-03-24T02:59:18.418Z,46.33
2019-03-24T03:01:46.867Z,48.23
2019-03-24T03:04:15.297Z,48.40
2019-03-24T03:06:43.749Z,40.17
2019-03-24T03:09:12.242Z,49.60
2019-03-24T03:11:40.705Z,45.52
2019-03-24T03:14:09.198Z,41.45
2019-03-24T03:16:39.076Z,47.53
2019-03-24T03:19:08.303Z,43.38
2019-03-24T03:21:36.757Z,53.65
2019-03-24T03:24:05.583Z,49.45
2019-03-24T03:26:34.042Z,22.13
2019-03-24T03:29:02.547Z,34.53
2019-03-24T03:31:30.993Z,48.00
2019-03-24T03:33:59.433Z,38.60
2019-03-24T03:36:28.203Z,48.38
2019-03-24T03:38:56.763Z,44.58
2019-03-24T03:41:26.484Z,48.92
2019-03-24T03:43:54.910Z,40.23
2019-03-24T03:46:23.354Z,48.52
2019-03-24T03:48:51.789Z,45.92
2019-03-24T03:51:20.259Z,45.20
2019-03-24T03:53:48.692Z,54.73
2019-03-24T03:56:17.152Z,62.10
2019-03-24T03:58:45.601Z,49.77
2019-03-24T04:01:14.094Z,47.07
2019-03-24T04:03:42.540Z,49.77
2019-03-24T04:06:10.984Z,49.37
2019-03-24T04:08:39.776Z,54.48
2019-03-24T04:11:08.247Z,42.98
2019-03-24T04:13:36.766Z,47.60
2019-03-24T04:16:05.194Z,44.93
2019-03-24T04:18:33.738Z,38.67
2019-03-24T04:21:02.173Z,39.08
2019-03-24T04:23:30.636Z,37.03
2019-03-24T04:25:59.351Z,41.88
2019-03-24T04:28:27.790Z,43.50
2019-03-24T04:30:56.227Z,42.38
2019-03-24T04:33:24.695Z,42.00
2019-03-24T04:35:53.127Z,41.23
2019-03-24T04:38:21.581Z,38.70
2019-03-24T04:40:50.018Z,42.38
2019-03-24T04:43:18.482Z,43.28
2019-03-24T04:45:46.913Z,38.02
2019-03-24T04:48:15.360Z,40.43
2019-03-24T04:50:43.785Z,42.10
2019-03-24T04:53:12.257Z,38.73
2019-03-24T04:55:40.686Z,36.05
2019-03-24T04:58:09.152Z,37.80
2019-03-24T05:00:39.225Z,37.80
2019-03-24T05:03:07.754Z,37.17
2019-03-24T05:05:36.246Z,33.73
2019-03-24T05:08:05.101Z,34.08
2019-03-24T05:10:34.101Z,33.08
2019-03-24T05:13:02.545Z,33.73
2019-03-24T05:15:30.981Z,29.95
2019-03-24T05:17:59.431Z,39.20
2019-03-24T05:20:28.198Z,39.30
2019-03-24T05:22:56.645Z,39.08
2019-03-24T05:25:25.077Z,46.40
2019-03-24T05:27:53.528Z,49.55
2019-03-24T05:30:22.221Z,42.80
2019-03-24T05:32:51.033Z,49.08
2019-03-24T05:35:19.461Z,47.50
2019-03-24T05:37:47.893Z,46.85
2019-03-24T05:40:16.332Z,48.45
2019-03-24T05:42:45.050Z,39.33
2019-03-24T05:45:15.032Z,46.92
2019-03-24T05:47:43.461Z,44.25
2019-03-24T05:50:12.150Z,38.98
2019-03-24T05:52:40.585Z,37.60
2019-03-24T05:55:09.116Z,37.75
2019-03-24T05:57:37.553Z,34.25
2019-03-24T06:00:07.652Z,27.95
2019-03-24T06:02:36.092Z,39.40
2019-03-24T06:05:06.473Z,29.37
2019-03-24T06:07:34.905Z,37.38
2019-03-24T06:10:04.425Z,30.52
2019-03-24T06:12:32.865Z,32.33
2019-03-24T06:15:01.313Z,32.73
2019-03-24T06:17:29.746Z,34.53
2019-03-24T06:19:58.193Z,28.83
2019-03-24T06:22:26.625Z,33.25
2019-03-24T06:24:55.125Z,33.85
2019-03-24T06:27:23.560Z,30.90
2019-03-24T06:29:52.011Z,41.90
2019-03-24T06:32:20.437Z,34.67
2019-03-24T06:34:48.903Z,33.58
2019-03-24T06:37:17.333Z,37.45
2019-03-24T06:39:45.797Z,34.48
2019-03-24T06:42:14.554Z,38.15
2019-03-24T06:44:43.339Z,39.88
2019-03-24T06:47:11.768Z,33.65
2019-03-24T06:49:40.217Z,31.95
2019-03-24T06:52:08.659Z,42.85
2019-03-24T06:54:37.175Z,33.78
2019-03-24T06:57:05.605Z,35.75
2019-03-24T06:59:34.048Z,31.52
2019-03-24T07:02:02.476Z,32.38
2019-03-24T07:04:30.927Z,47.08
2019-03-24T07:06:59.360Z,33.55
2019-03-24T07:09:27.800Z,25.45
2019-03-24T07:11:56.234Z,25.92
2019-03-24T07:14:25.031Z,26.87
2019-03-24T07:16:53.461Z,26.87
2019-03-24T07:19:41.253Z,23.90
2019-03-24T07:22:09.680Z,22.50
2019-03-24T07:24:38.127Z,23.35
2019-03-24T07:27:06.558Z,19.55
2019-03-24T07:29:35.013Z,21.45
2019-03-24T07:32:03.450Z,18.07
2019-03-24T07:34:32.221Z,17.67
2019-03-24T07:37:00.742Z,20.25
2019-03-24T07:39:29.177Z,18.37
2019-03-24T07:41:57.617Z,15.80
2019-03-24T07:44:26.052Z,12.95
2019-03-24T07:46:54.497Z,13.05
2019-03-24T07:49:22.929Z,13.00
2019-03-24T07:51:51.441Z,10.88
2019-03-24T07:54:19.865Z,11.40
2019-03-24T07:56:48.309Z,11.53
2019-03-24T07:59:16.742Z,10.63
2019-03-24T08:01:48.332Z,9.75
2019-03-24T08:04:17.069Z,10.60
2019-03-24T08:06:45.539Z,10.48
2019-03-24T08:09:15.494Z,9.85
2019-03-24T08:11:43.961Z,10.72
2019-03-24T08:14:12.386Z,10.72
2019-03-24T08:16:40.829Z,9.93
2019-03-24T08:19:09.249Z,12.70
2019-03-24T08:21:37.697Z,10.78
2019-03-24T08:24:06.130Z,10.70
2019-03-24T08:26:34.569Z,10.70
2019-03-24T08:29:03.011Z,10.40
2019-03-24T08:31:31.445Z,11.20
2019-03-24T08:33:59.873Z,12.33
2019-03-24T08:36:28.322Z,11.63
2019-03-24T08:38:56.749Z,14.35
2019-03-24T08:41:25.193Z,14.10
2019-03-24T08:43:53.884Z,16.35
2019-03-24T08:46:22.326Z,14.58
2019-03-24T08:48:50.757Z,12.58
2019-03-24T08:51:19.204Z,14.45
2019-03-24T08:53:47.633Z,18.40
2019-03-24T08:56:16.078Z,13.37
2019-03-24T08:58:44.514Z,17.17
2019-03-24T09:01:12.962Z,16.77
2019-03-24T09:03:41.402Z,18.50
2019-03-24T09:06:09.854Z,17.97
2019-03-24T09:08:38.357Z,18.25
2019-03-24T09:11:06.877Z,23.23
2019-03-24T09:13:35.305Z,23.77
2019-03-24T09:16:03.744Z,23.60
2019-03-24T09:18:32.192Z,20.17
2019-03-24T09:21:00.945Z,24.18
2019-03-24T09:23:29.393Z,25.75
2019-03-24T09:25:58.754Z,28.67
2019-03-24T09:28:27.201Z,25.90
2019-03-24T09:30:55.637Z,29.75
2019-03-24T09:33:24.090Z,28.85
2019-03-24T09:35:52.525Z,30.40
2019-03-24T09:38:20.983Z,27.58
2019-03-24T09:40:49.409Z,28.73
2019-03-24T09:43:17.862Z,27.45
2019-03-24T09:45:46.297Z,26.25
2019-03-24T09:48:15.103Z,24.15
2019-03-24T09:50:43.577Z,26.52
2019-03-24T09:53:12.020Z,26.37
2019-03-24T09:55:40.801Z,27.52
2019-03-24T09:58:09.585Z,28.00
2019-03-24T10:00:39.663Z,26.62
2019-03-24T10:03:08.293Z,30.40
2019-03-24T10:05:36.724Z,27.95
2019-03-24T10:08:24.505Z,27.50
2019-03-24T10:10:53.199Z,27.17
2019-03-24T10:13:21.646Z,25.97
2019-03-24T10:15:50.153Z,25.62
2019-03-24T10:18:18.673Z,30.60
2019-03-24T10:20:47.107Z,25.95
2019-03-24T10:23:15.561Z,24.85
2019-03-24T10:25:43.997Z,25.02
2019-03-24T10:28:12.450Z,25.97
2019-03-24T10:30:40.877Z,23.55
2019-03-24T10:33:09.330Z,25.95
2019-03-24T10:35:37.762Z,27.50
2019-03-24T10:38:06.211Z,26.48
2019-03-24T10:40:34.730Z,27.25
2019-03-24T10:43:03.178Z,26.05
2019-03-24T10:45:31.662Z,23.40
2019-03-24T10:48:00.125Z,27.40
2019-03-24T10:50:28.902Z,27.95
2019-03-24T10:52:57.373Z,36.20
2019-03-24T10:55:25.804Z,31.02
2019-03-24T10:57:54.248Z,31.93
2019-03-24T11:00:31.363Z,94.75
2019-03-24T11:02:59.899Z,32.48
2019-03-24T11:05:28.329Z,31.82
2019-03-24T11:07:56.782Z,31.62
2019-03-24T11:10:25.213Z,36.73
2019-03-24T11:12:53.663Z,40.65
2019-03-24T11:15:22.103Z,39.27
2019-03-24T11:17:50.549Z,39.85
2019-03-24T11:20:18.986Z,38.53
2019-03-24T11:22:47.433Z,41.60
2019-03-24T11:25:18.306Z,38.70
2019-03-24T11:27:47.228Z,42.70
2019-03-24T11:30:16.374Z,47.05
2019-03-24T11:32:45.573Z,49.38
2019-03-24T11:35:14.513Z,47.70
2019-03-24T11:37:43.445Z,47.67
2019-03-24T11:40:13.269Z,48.83
2019-03-24T11:42:42.091Z,49.90
2019-03-24T11:45:12.018Z,45.48
2019-03-24T11:47:40.778Z,44.53
2019-03-24T11:50:10.797Z,47.73
2019-03-24T11:52:39.316Z,49.38
2019-03-24T11:55:09.409Z,51.05
2019-03-24T11:57:37.845Z,51.70
2019-03-24T12:00:16.761Z,49.00
2019-03-24T12:02:45.205Z,50.33
2019-03-24T12:05:13.753Z,52.03
2019-03-24T12:07:42.278Z,48.23
2019-03-24T12:10:13.091Z,48.58
2019-03-24T12:12:41.583Z,49.77
2019-03-24T12:15:10.685Z,48.15
2019-03-24T12:17:39.154Z,45.20
2019-03-24T12:20:09.674Z,47.55
2019-03-24T12:22:38.114Z,49.55
2019-03-24T12:25:08.753Z,50.58
2019-03-24T12:27:37.190Z,50.80
2019-03-24T12:30:07.881Z,52.93
2019-03-24T12:32:36.369Z,56.07
2019-03-24T12:35:08.283Z,58.60
2019-03-24T12:37:36.710Z,56.35
2019-03-24T12:40:07.386Z,54.25
2019-03-24T12:42:35.817Z,54.53
2019-03-24T12:45:09.407Z,54.98
2019-03-24T12:47:37.837Z,58.00
2019-03-24T12:50:10.272Z,57.43
2019-03-24T12:52:38.949Z,57.05
2019-03-24T12:55:07.922Z,54.70
2019-03-24T12:57:36.353Z,56.05
2019-03-24T13:00:10.468Z,53.78
2019-03-24T13:02:38.900Z,54.53
2019-03-24T13:05:08.789Z,58.85
2019-03-24T13:07:37.302Z,54.77
2019-03-24T13:10:06.487Z,57.35
2019-03-24T13:12:34.925Z,53.92
2019-03-24T13:15:04.922Z,54.10
2019-03-24T13:17:33.350Z,53.83
2019-03-24T13:20:02.125Z,52.17
2019-03-24T13:22:30.631Z,49.15
2019-03-24T13:24:59.070Z,50.05
2019-03-24T13:27:27.521Z,51.40
2019-03-24T13:29:55.957Z,50.90
2019-03-24T13:32:24.401Z,52.23
2019-03-24T13:34:52.837Z,50.90
2019-03-24T13:37:21.302Z,50.33
2019-03-24T13:39:49.774Z,51.05
2019-03-24T13:42:18.210Z,50.33
2019-03-24T13:44:46.659Z,51.45
2019-03-24T13:47:15.111Z,53.55
2019-03-24T13:49:43.541Z,49.25
2019-03-24T13:52:12.258Z,47.40
2019-03-24T13:54:40.698Z,46.92
2019-03-24T13:57:09.146Z,50.43
2019-03-24T13:59:37.578Z,53.70
2019-03-24T14:02:06.377Z,52.88
2019-03-24T14:04:34.801Z,52.78
2019-03-24T14:07:03.263Z,55.85
2019-03-24T14:09:31.685Z,58.35
2019-03-24T14:12:00.136Z,53.87
2019-03-24T14:14:28.569Z,53.25
2019-03-24T14:16:57.027Z,53.00
2019-03-24T14:19:25.458Z,59.58
2019-03-24T14:21:53.907Z,56.95
2019-03-24T14:24:22.637Z,55.92
2019-03-24T14:26:51.087Z,53.38
2019-03-24T14:29:19.560Z,57.45
2019-03-24T14:31:48.049Z,55.30
2019-03-24T14:34:16.481Z,53.33
2019-03-24T14:36:44.941Z,50.90
2019-03-24T14:39:13.618Z,56.75
2019-03-24T14:41:42.070Z,52.27
2019-03-24T14:44:10.505Z,56.55
2019-03-24T14:46:38.958Z,50.43
2019-03-24T14:49:07.760Z,51.50
2019-03-24T14:51:36.210Z,53.23
2019-03-24T14:54:04.722Z,49.15
2019-03-24T14:56:34.137Z,54.30
2019-03-24T14:59:02.769Z,50.03
2019-03-24T15:01:31.216Z,50.52
2019-03-24T15:03:59.665Z,51.50
2019-03-24T15:06:28.105Z,49.60
2019-03-24T15:08:56.562Z,51.13
2019-03-24T15:11:25.010Z,52.78
2019-03-24T15:13:53.456Z,48.10
2019-03-24T15:16:22.208Z,47.38
2019-03-24T15:18:50.656Z,47.30
2019-03-24T15:21:19.090Z,45.43
2019-03-24T15:23:47.537Z,47.88
2019-03-24T15:26:15.978Z,48.00
2019-03-24T15:28:44.438Z,47.95
2019-03-24T15:31:13.178Z,47.83
2019-03-24T15:33:41.627Z,43.73
2019-03-24T15:36:10.065Z,47.07
2019-03-24T15:38:38.770Z,47.55
2019-03-24T15:41:07.206Z,46.05
2019-03-24T15:43:35.658Z,47.55
2019-03-24T15:46:04.088Z,42.20
2019-03-24T15:48:32.538Z,50.20
2019-03-24T15:51:00.973Z,47.23
2019-03-24T15:53:29.421Z,47.40
2019-03-24T15:55:57.857Z,50.58
2019-03-24T15:58:26.301Z,46.15
2019-03-24T16:00:54.736Z,48.23
2019-03-24T16:03:23.186Z,49.77
2019-03-24T16:05:51.621Z,51.18
2019-03-24T16:08:20.072Z,46.83
2019-03-24T16:10:48.501Z,52.25
2019-03-24T16:13:16.974Z,52.98
2019-03-24T16:15:45.425Z,55.05
2019-03-24T16:18:13.924Z,51.85
2019-03-24T16:20:42.380Z,54.38
2019-03-24T16:23:10.834Z,54.20
2019-03-24T16:25:39.273Z,52.13
2019-03-24T16:28:07.745Z,55.08
2019-03-24T16:30:36.536Z,54.55
2019-03-24T16:33:05.115Z,56.48
2019-03-24T16:35:33.583Z,51.55
2019-03-24T16:38:02.285Z,53.92
2019-03-24T16:40:30.753Z,52.88
2019-03-24T16:42:59.194Z,54.98
2019-03-24T16:45:27.633Z,53.55
2019-03-24T16:47:56.089Z,56.15
2019-03-24T16:50:24.536Z,54.40
2019-03-24T16:52:52.973Z,59.50
2019-03-24T16:55:21.447Z,58.92
2019-03-24T16:57:50.019Z,57.27
2019-03-24T17:00:18.996Z,57.43
2019-03-24T17:02:47.622Z,57.08
2019-03-24T17:05:16.149Z,58.40
2019-03-24T17:07:44.655Z,63.10
2019-03-24T17:10:13.446Z,54.05
2019-03-24T17:12:41.882Z,57.35
2019-03-24T17:15:10.773Z,61.95
2019-03-24T17:17:39.465Z,60.55
2019-03-24T17:20:08.930Z,60.05
2019-03-24T17:22:37.444Z,62.03
2019-03-24T17:25:06.514Z,61.18
2019-03-24T17:27:34.957Z,58.98
2019-03-24T17:30:04.726Z,60.78
2019-03-24T17:32:33.262Z,61.92
2019-03-24T17:35:01.730Z,60.92
2019-03-24T17:37:30.179Z,55.25
2019-03-24T17:39:58.933Z,60.12
2019-03-24T17:42:27.377Z,59.98
2019-03-24T17:44:55.897Z,58.02
2019-03-24T17:47:24.336Z,54.90
2019-03-24T17:49:52.784Z,59.10
2019-03-24T17:52:21.588Z,54.13
2019-03-24T17:54:50.585Z,56.85
2019-03-24T17:57:19.129Z,61.02
2019-03-24T17:59:47.581Z,54.48
2019-03-24T18:02:16.029Z,55.43
2019-03-24T18:04:44.545Z,61.50
2019-03-24T18:07:13.259Z,62.03
2019-03-24T18:09:41.693Z,55.03
2019-03-24T18:12:10.394Z,58.50
2019-03-24T18:14:39.117Z,58.38
2019-03-24T18:17:07.633Z,56.65
2019-03-24T18:19:36.069Z,58.02
2019-03-24T18:22:11.646Z,52.90
2019-03-24T18:24:34.685Z,50.23
2019-03-24T18:27:03.140Z,56.13
2019-03-24T18:29:31.570Z,52.67
2019-03-24T18:32:00.335Z,55.08
2019-03-24T18:34:28.761Z,51.98
2019-03-24T18:36:57.219Z,51.77
2019-03-24T18:39:25.649Z,52.43
2019-03-24T18:41:54.357Z,51.28
2019-03-24T18:44:22.885Z,53.50
2019-03-24T18:46:51.338Z,51.98
2019-03-24T18:49:19.773Z,52.73
2019-03-24T18:51:48.226Z,51.08
2019-03-24T18:54:16.674Z,55.35
2019-03-24T18:56:45.188Z,55.90
2019-03-24T18:59:13.616Z,55.75
2019-03-24T19:01:42.733Z,46.18
2019-03-24T19:04:12.101Z,53.90
2019-03-24T19:06:41.397Z,56.83
2019-03-24T19:09:10.287Z,52.03
2019-03-24T19:11:39.647Z,48.17
2019-03-24T19:14:08.133Z,54.98
2019-03-24T19:16:36.590Z,53.35
2019-03-24T19:19:05.092Z,57.67
2019-03-24T19:21:33.706Z,54.18
2019-03-24T19:24:02.146Z,50.98
2019-03-24T19:26:30.598Z,51.95
2019-03-24T19:28:59.285Z,58.63
2019-03-24T19:31:27.947Z,50.05
2019-03-24T19:33:56.534Z,58.17
2019-03-24T19:36:25.050Z,50.17
2019-03-24T19:38:53.823Z,55.67
2019-03-24T19:41:22.533Z,53.63
2019-03-24T19:43:50.967Z,51.18
2019-03-24T19:46:19.413Z,52.05
2019-03-24T19:48:47.844Z,55.17
2019-03-24T19:51:16.282Z,56.15
2019-03-24T19:53:44.733Z,57.43
2019-03-24T19:56:13.169Z,56.93
2019-03-24T19:58:41.618Z,56.75
2019-03-24T20:01:10.057Z,50.50
2019-03-24T20:03:38.586Z,52.75
2019-03-24T20:06:07.094Z,47.97
2019-03-24T20:08:35.542Z,57.30
2019-03-24T20:11:04.218Z,53.23
2019-03-24T20:13:32.671Z,58.65
2019-03-24T20:16:01.104Z,62.53
2019-03-24T20:18:29.555Z,58.00
2019-03-24T20:20:58.678Z,57.04
2019-03-24T20:23:27.147Z,65.30
2019-03-24T20:25:55.910Z,53.78
2019-03-24T20:28:24.416Z,59.38
2019-03-24T20:30:53.181Z,58.33
2019-03-24T20:33:21.629Z,52.20
2019-03-24T20:35:50.065Z,58.73
2019-03-24T20:38:18.521Z,58.80
2019-03-24T20:40:47.213Z,62.45
2019-03-24T20:43:15.685Z,62.67
2019-03-24T20:45:44.482Z,59.08
2019-03-24T20:48:12.935Z,62.73
2019-03-24T20:50:41.426Z,60.75
2019-03-24T20:53:17.974Z,63.60
2019-03-24T20:55:40.066Z,60.90
2019-03-24T20:58:08.536Z,63.17
2019-03-24T21:00:37.409Z,72.53
2019-03-24T21:03:07.593Z,72.22
2019-03-24T21:05:36.370Z,65.05
2019-03-24T21:08:04.977Z,67.53
2019-03-24T21:10:33.482Z,63.45
2019-03-24T21:13:01.930Z,68.83
2019-03-24T21:15:30.367Z,67.62
2019-03-24T21:17:58.838Z,66.17
2019-03-24T21:20:27.273Z,66.57
2019-03-24T21:22:55.741Z,68.07
2019-03-24T21:25:24.185Z,74.47
2019-03-24T21:27:52.917Z,69.35
2019-03-24T21:30:24.486Z,71.70
2019-03-24T21:32:52.961Z,73.57
2019-03-24T21:35:21.397Z,69.40
2019-03-24T21:37:49.832Z,71.02
2019-03-24T21:40:18.285Z,77.62
2019-03-24T21:42:46.726Z,80.00
2019-03-24T21:45:15.518Z,74.87
2019-03-24T21:47:44.033Z,76.67
2019-03-24T21:50:13.205Z,79.50
2019-03-24T21:52:41.718Z,74.92
2019-03-24T21:55:10.306Z,75.22
2019-03-24T21:57:38.751Z,80.72
2019-03-24T22:00:09.385Z,75.08
2019-03-24T22:02:37.897Z,75.30
2019-03-24T22:05:06.781Z,78.47
2019-03-24T22:07:35.297Z,78.28
2019-03-24T22:10:05.970Z,77.08
2019-03-24T22:12:34.663Z,74.77
2019-03-24T22:15:03.261Z,76.80
2019-03-24T22:17:31.705Z,68.00
2019-03-24T22:20:00.511Z,68.42
2019-03-24T22:22:28.947Z,70.00
2019-03-24T22:24:57.394Z,71.28
2019-03-24T22:27:25.834Z,68.28
2019-03-24T22:29:54.282Z,68.87
2019-03-24T22:32:22.720Z,69.42
2019-03-24T22:34:51.174Z,68.10
2019-03-24T22:37:19.990Z,66.20
2019-03-24T22:39:48.453Z,65.83
2019-03-24T22:42:16.889Z,70.03
2019-03-24T22:44:45.350Z,70.42
2019-03-24T22:47:14.142Z,67.30
2019-03-24T22:49:42.617Z,68.70
2019-03-24T22:52:11.057Z,70.95
2019-03-24T22:54:39.515Z,73.72
2019-03-24T22:57:07.953Z,71.02
2019-03-24T22:59:36.401Z,69.72
2019-03-24T23:02:05.176Z,72.60
2019-03-24T23:04:33.705Z,77.35
2019-03-24T23:07:02.137Z,75.67
2019-03-24T23:09:30.663Z,79.27
2019-03-24T23:11:59.269Z,68.07
2019-03-24T23:14:27.721Z,76.05
2019-03-24T23:16:56.156Z,76.95
2019-03-24T23:19:24.611Z,77.12
2019-03-24T23:21:53.051Z,76.47
2019-03-24T23:24:21.513Z,76.60
2019-03-24T23:26:49.956Z,76.05
2019-03-24T23:29:18.401Z,81.97
2019-03-24T23:31:46.833Z,78.45
2019-03-24T23:34:15.285Z,80.10
2019-03-24T23:36:43.724Z,77.95
2019-03-24T23:39:12.170Z,80.12
2019-03-24T23:41:40.612Z,82.90
2019-03-24T23:44:09.113Z,86.35
2019-03-24T23:46:37.566Z,85.50
2019-03-24T23:49:06.042Z,81.40
2019-03-24T23:51:34.530Z,84.80
2019-03-24T23:54:02.961Z,79.75
2019-03-24T23:56:31.408Z,83.60
2019-03-24T23:58:59.841Z,82.10
